sensor_id;sensor_type;location;lat;lon;timestamp;P1;P2;P0
56360;PMS7003;42611;51.132;13.588;2022-08-21T00:04:04;45.1;37.7;
56360;PMS7003;42611;51.132;13.588;2022-08-21T00:09:07;47.3;39.2;
56360;PMS7003;42611;51.132;13.588;2022-08-21T00:14:02;46.3;38.5;
56360;PMS7003;42611;51.132;13.588;2022-08-21T00:19:02;45.3;38.1;
56360;PMS7003;42611;51.132;13.588;2022-08-21T00:24:02;47.6;39.5;
56360;PMS7003;42611;51.132;13.588;2022-08-21T00:29:02;48.4;40.0;
56360;PMS7003;42611;51.132;13.588;2022-08-21T00:34:02;48.9;40.1;
56360;PMS7003;42611;51.132;13.588;2022-08-21T00:39:02;49.1;40.2;
56360;PMS7003;42611;51.132;13.588;2022-08-21T00:44:02;49.2;40.2;
56360;PMS7003;42611;51.132;13.588;2022-08-21T00:54:04;48.8;39.5;
56360;PMS7003;42611;51.132;13.588;2022-08-21T00:59:01;49.7;40.2;
56360;PMS7003;42611;51.132;13.588;2022-08-21T01:04:02;51.4;41.2;
56360;PMS7003;42611;51.132;13.588;2022-08-21T01:09:02;52.8;41.9;
56360;PMS7003;42611;51.132;13.588;2022-08-21T01:14:02;51.8;41.6;
56360;PMS7003;42611;51.132;13.588;2022-08-21T01:19:01;51.3;41.6;
56360;PMS7003;42611;51.132;13.588;2022-08-21T01:24:01;48.7;40.0;
56360;PMS7003;42611;51.132;13.588;2022-08-21T01:29:41;45.9;38.4;
56360;PMS7003;42611;51.132;13.588;2022-08-21T01:34:01;41.6;35.8;
56360;PMS7003;42611;51.132;13.588;2022-08-21T01:39:02;36.4;32.0;
56360;PMS7003;42611;51.132;13.588;2022-08-21T01:44:06;32.9;29.3;
56360;PMS7003;42611;51.132;13.588;2022-08-21T01:49:02;29.5;27.2;
56360;PMS7003;42611;51.132;13.588;2022-08-21T01:54:02;25.8;24.1;
56360;PMS7003;42611;51.132;13.588;2022-08-21T01:59:02;23.3;21.9;
56360;PMS7003;42611;51.132;13.588;2022-08-21T02:04:01;22.8;21.4;
56360;PMS7003;42611;51.132;13.588;2022-08-21T02:09:04;23.3;22.0;
56360;PMS7003;42611;51.132;13.588;2022-08-21T02:14:02;22.1;20.3;
56360;PMS7003;42611;51.132;13.588;2022-08-21T02:19:02;21.7;19.9;
56360;PMS7003;42611;51.132;13.588;2022-08-21T02:24:01;22.0;19.6;
56360;PMS7003;42611;51.132;13.588;2022-08-21T02:34:01;19.1;17.3;
56360;PMS7003;42611;51.132;13.588;2022-08-21T02:39:01;18.5;16.2;
56360;PMS7003;42611;51.132;13.588;2022-08-21T02:44:01;20.4;18.4;
56360;PMS7003;42611;51.132;13.588;2022-08-21T02:49:01;19.9;18.6;
56360;PMS7003;42611;51.132;13.588;2022-08-21T02:54:01;18.5;17.4;
56360;PMS7003;42611;51.132;13.588;2022-08-21T02:59:01;19.5;18.4;
56360;PMS7003;42611;51.132;13.588;2022-08-21T03:04:01;20.6;20.3;
56360;PMS7003;42611;51.132;13.588;2022-08-21T03:09:02;19.3;19.1;
56360;PMS7003;42611;51.132;13.588;2022-08-21T03:14:01;19.2;18.9;
56360;PMS7003;42611;51.132;13.588;2022-08-21T03:19:01;20.8;20.4;
56360;PMS7003;42611;51.132;13.588;2022-08-21T03:24:04;21.9;21.5;
56360;PMS7003;42611;51.132;13.588;2022-08-21T03:29:01;23.1;22.6;
56360;PMS7003;42611;51.132;13.588;2022-08-21T03:34:01;23.3;22.5;
56360;PMS7003;42611;51.132;13.588;2022-08-21T03:39:02;23.8;22.7;
56360;PMS7003;42611;51.132;13.588;2022-08-21T03:44:02;24.2;23.1;
56360;PMS7003;42611;51.132;13.588;2022-08-21T03:49:01;23.8;22.6;
56360;PMS7003;42611;51.132;13.588;2022-08-21T03:54:02;24.0;23.1;
56360;PMS7003;42611;51.132;13.588;2022-08-21T03:59:02;28.1;25.7;
56360;PMS7003;42611;51.132;13.588;2022-08-21T04:04:04;30.5;27.8;
56360;PMS7003;42611;51.132;13.588;2022-08-21T04:09:01;33.9;29.5;
56360;PMS7003;42611;51.132;13.588;2022-08-21T04:14:01;34.2;29.5;
56360;PMS7003;42611;51.132;13.588;2022-08-21T04:19:01;34.9;29.5;
56360;PMS7003;42611;51.132;13.588;2022-08-21T04:24:01;32.4;28.4;
56360;PMS7003;42611;51.132;13.588;2022-08-21T04:29:02;30.8;27.5;
56360;PMS7003;42611;51.132;13.588;2022-08-21T04:34:02;27.4;25.9;
56360;PMS7003;42611;51.132;13.588;2022-08-21T04:39:05;27.7;26.1;
56360;PMS7003;42611;51.132;13.588;2022-08-21T04:44:02;25.4;24.7;
56360;PMS7003;42611;51.132;13.588;2022-08-21T04:49:06;23.4;23.0;
56360;PMS7003;42611;51.132;13.588;2022-08-21T04:54:05;25.4;24.1;
56360;PMS7003;42611;51.132;13.588;2022-08-21T04:59:03;27.0;25.0;
56360;PMS7003;42611;51.132;13.588;2022-08-21T05:04:02;27.6;25.2;
56360;PMS7003;42611;51.132;13.588;2022-08-21T05:09:03;29.8;27.0;
56360;PMS7003;42611;51.132;13.588;2022-08-21T05:14:01;31.4;28.2;
56360;PMS7003;42611;51.132;13.588;2022-08-21T05:19:01;30.8;27.9;
56360;PMS7003;42611;51.132;13.588;2022-08-21T05:24:01;33.4;29.7;
56360;PMS7003;42611;51.132;13.588;2022-08-21T05:29:02;33.8;30.0;
56360;PMS7003;42611;51.132;13.588;2022-08-21T05:34:03;33.7;29.8;
56360;PMS7003;42611;51.132;13.588;2022-08-21T05:39:01;34.5;30.6;
56360;PMS7003;42611;51.132;13.588;2022-08-21T05:44:02;34.7;30.7;
56360;PMS7003;42611;51.132;13.588;2022-08-21T05:49:01;33.7;30.3;
56360;PMS7003;42611;51.132;13.588;2022-08-21T05:59:01;33.6;30.6;
56360;PMS7003;42611;51.132;13.588;2022-08-21T06:04:03;33.2;30.2;
56360;PMS7003;42611;51.132;13.588;2022-08-21T06:09:02;32.0;29.6;
56360;PMS7003;42611;51.132;13.588;2022-08-21T06:14:01;31.0;29.0;
56360;PMS7003;42611;51.132;13.588;2022-08-21T06:19:03;31.4;29.2;
56360;PMS7003;42611;51.132;13.588;2022-08-21T06:24:01;31.9;29.5;
56360;PMS7003;42611;51.132;13.588;2022-08-21T06:29:01;32.4;29.7;
56360;PMS7003;42611;51.132;13.588;2022-08-21T06:34:01;32.6;29.5;
56360;PMS7003;42611;51.132;13.588;2022-08-21T06:39:10;31.3;28.5;
56360;PMS7003;42611;51.132;13.588;2022-08-21T06:44:01;29.9;27.6;
56360;PMS7003;42611;51.132;13.588;2022-08-21T06:49:01;28.5;26.3;
56360;PMS7003;42611;51.132;13.588;2022-08-21T06:54:01;26.8;25.2;
56360;PMS7003;42611;51.132;13.588;2022-08-21T07:04:01;25.8;24.4;
56360;PMS7003;42611;51.132;13.588;2022-08-21T07:09:01;25.5;24.2;
56360;PMS7003;42611;51.132;13.588;2022-08-21T07:24:01;28.2;26.4;
56360;PMS7003;42611;51.132;13.588;2022-08-21T07:29:02;29.0;27.3;
56360;PMS7003;42611;51.132;13.588;2022-08-21T07:34:01;29.6;27.8;
56360;PMS7003;42611;51.132;13.588;2022-08-21T07:39:01;28.9;27.5;
56360;PMS7003;42611;51.132;13.588;2022-08-21T07:44:01;28.1;27.0;
56360;PMS7003;42611;51.132;13.588;2022-08-21T07:49:01;26.7;26.0;
56360;PMS7003;42611;51.132;13.588;2022-08-21T07:54:01;25.8;25.4;
56360;PMS7003;42611;51.132;13.588;2022-08-21T08:04:02;25.2;23.9;
56360;PMS7003;42611;51.132;13.588;2022-08-21T08:09:01;23.7;22.6;
56360;PMS7003;42611;51.132;13.588;2022-08-21T08:14:01;23.3;22.0;
56360;PMS7003;42611;51.132;13.588;2022-08-21T08:19:01;24.0;22.0;
56360;PMS7003;42611;51.132;13.588;2022-08-21T08:24:16;23.0;21.6;
56360;PMS7003;42611;51.132;13.588;2022-08-21T08:39:02;22.6;21.0;
56360;PMS7003;42611;51.132;13.588;2022-08-21T08:44:02;20.8;19.8;
56360;PMS7003;42611;51.132;13.588;2022-08-21T08:50:11;19.6;18.9;
56360;PMS7003;42611;51.132;13.588;2022-08-21T08:54:02;18.8;18.3;
56360;PMS7003;42611;51.132;13.588;2022-08-21T08:59:13;18.9;18.4;
56360;PMS7003;42611;51.132;13.588;2022-08-21T09:04:01;18.7;18.6;
56360;PMS7003;42611;51.132;13.588;2022-08-21T09:09:08;19.3;19.0;
56360;PMS7003;42611;51.132;13.588;2022-08-21T09:14:08;19.0;18.0;
56360;PMS7003;42611;51.132;13.588;2022-08-21T09:19:36;17.8;16.8;
56360;PMS7003;42611;51.132;13.588;2022-08-21T09:24:27;15.9;14.8;
56360;PMS7003;42611;51.132;13.588;2022-08-21T09:29:01;14.6;13.6;
56360;PMS7003;42611;51.132;13.588;2022-08-21T09:34:06;13.4;12.4;
56360;PMS7003;42611;51.132;13.588;2022-08-21T09:39:01;12.4;11.8;
56360;PMS7003;42611;51.132;13.588;2022-08-21T09:44:01;12.1;11.4;
56360;PMS7003;42611;51.132;13.588;2022-08-21T09:49:03;11.3;10.7;
56360;PMS7003;42611;51.132;13.588;2022-08-21T09:54:14;10.4;9.8;
56360;PMS7003;42611;51.132;13.588;2022-08-21T09:59:18;9.6;9.2;
56360;PMS7003;42611;51.132;13.588;2022-08-21T10:04:02;9.4;8.9;
56360;PMS7003;42611;51.132;13.588;2022-08-21T10:09:05;8.9;8.4;
56360;PMS7003;42611;51.132;13.588;2022-08-21T10:14:13;8.7;8.2;
56360;PMS7003;42611;51.132;13.588;2022-08-21T10:19:12;8.8;8.2;
56360;PMS7003;42611;51.132;13.588;2022-08-21T10:24:12;8.6;8.0;
56360;PMS7003;42611;51.132;13.588;2022-08-21T10:29:39;7.8;7.4;
56360;PMS7003;42611;51.132;13.588;2022-08-21T10:34:12;7.3;7.2;
56360;PMS7003;42611;51.132;13.588;2022-08-21T10:39:24;7.2;7.0;
56360;PMS7003;42611;51.132;13.588;2022-08-21T10:44:08;7.1;6.8;
56360;PMS7003;42611;51.132;13.588;2022-08-21T10:49:09;7.0;6.8;
56360;PMS7003;42611;51.132;13.588;2022-08-21T10:54:13;6.9;6.6;
56360;PMS7003;42611;51.132;13.588;2022-08-21T10:59:36;6.7;6.4;
56360;PMS7003;42611;51.132;13.588;2022-08-21T11:04:48;6.4;6.0;
56360;PMS7003;42611;51.132;13.588;2022-08-21T11:09:06;5.5;5.2;
56360;PMS7003;42611;51.132;13.588;2022-08-21T11:14:03;4.8;4.5;
56360;PMS7003;42611;51.132;13.588;2022-08-21T11:19:06;5.2;4.5;
56360;PMS7003;42611;51.132;13.588;2022-08-21T11:25:31;5.4;4.5;
56360;PMS7003;42611;51.132;13.588;2022-08-21T11:39:06;6.1;5.1;
56360;PMS7003;42611;51.132;13.588;2022-08-21T11:44:37;5.6;5.1;
56360;PMS7003;42611;51.132;13.588;2022-08-21T11:54:21;5.1;4.7;
56360;PMS7003;42611;51.132;13.588;2022-08-21T11:59:02;5.0;4.6;
56360;PMS7003;42611;51.132;13.588;2022-08-21T12:14:14;4.7;4.5;
56360;PMS7003;42611;51.132;13.588;2022-08-21T12:19:03;4.9;4.7;
56360;PMS7003;42611;51.132;13.588;2022-08-21T12:29:03;5.1;4.9;
56360;PMS7003;42611;51.132;13.588;2022-08-21T12:34:01;4.9;4.7;
56360;PMS7003;42611;51.132;13.588;2022-08-21T12:39:03;5.6;4.9;
56360;PMS7003;42611;51.132;13.588;2022-08-21T12:44:04;6.0;5.2;
56360;PMS7003;42611;51.132;13.588;2022-08-21T12:49:03;6.1;5.2;
56360;PMS7003;42611;51.132;13.588;2022-08-21T12:54:01;5.6;5.0;
56360;PMS7003;42611;51.132;13.588;2022-08-21T12:59:03;5.8;5.1;
56360;PMS7003;42611;51.132;13.588;2022-08-21T13:04:07;5.2;5.0;
56360;PMS7003;42611;51.132;13.588;2022-08-21T13:09:04;4.9;4.6;
56360;PMS7003;42611;51.132;13.588;2022-08-21T13:14:05;5.2;4.8;
56360;PMS7003;42611;51.132;13.588;2022-08-21T13:19:05;4.9;4.3;
56360;PMS7003;42611;51.132;13.588;2022-08-21T13:24:34;4.4;3.8;
56360;PMS7003;42611;51.132;13.588;2022-08-21T13:29:07;4.8;3.7;
56360;PMS7003;42611;51.132;13.588;2022-08-21T13:34:01;4.7;3.6;
56360;PMS7003;42611;51.132;13.588;2022-08-21T13:39:04;4.4;3.5;
56360;PMS7003;42611;51.132;13.588;2022-08-21T13:44:20;4.2;3.6;
56360;PMS7003;42611;51.132;13.588;2022-08-21T13:49:02;5.1;4.4;
56360;PMS7003;42611;51.132;13.588;2022-08-21T13:54:01;4.7;4.2;
56360;PMS7003;42611;51.132;13.588;2022-08-21T13:59:02;4.1;3.8;
56360;PMS7003;42611;51.132;13.588;2022-08-21T14:04:04;3.9;3.6;
56360;PMS7003;42611;51.132;13.588;2022-08-21T14:09:11;4.0;3.6;
56360;PMS7003;42611;51.132;13.588;2022-08-21T14:14:02;3.3;3.1;
56360;PMS7003;42611;51.132;13.588;2022-08-21T14:19:08;3.1;3.1;
56360;PMS7003;42611;51.132;13.588;2022-08-21T14:24:02;3.4;3.3;
56360;PMS7003;42611;51.132;13.588;2022-08-21T14:29:01;3.6;3.5;
56360;PMS7003;42611;51.132;13.588;2022-08-21T14:44:10;3.4;3.2;
56360;PMS7003;42611;51.132;13.588;2022-08-21T14:59:04;3.3;3.2;
56360;PMS7003;42611;51.132;13.588;2022-08-21T15:04:01;3.2;3.1;
56360;PMS7003;42611;51.132;13.588;2022-08-21T15:09:01;3.7;3.5;
56360;PMS7003;42611;51.132;13.588;2022-08-21T15:14:05;3.4;3.2;
56360;PMS7003;42611;51.132;13.588;2022-08-21T15:19:02;3.2;3.0;
56360;PMS7003;42611;51.132;13.588;2022-08-21T15:24:01;3.4;3.3;
56360;PMS7003;42611;51.132;13.588;2022-08-21T15:29:01;3.7;3.4;
56360;PMS7003;42611;51.132;13.588;2022-08-21T15:34:01;3.4;3.2;
56360;PMS7003;42611;51.132;13.588;2022-08-21T15:39:01;3.2;3.0;
56360;PMS7003;42611;51.132;13.588;2022-08-21T15:44:01;3.5;3.0;
56360;PMS7003;42611;51.132;13.588;2022-08-21T15:54:01;3.7;3.3;
56360;PMS7003;42611;51.132;13.588;2022-08-21T15:59:04;4.1;3.4;
56360;PMS7003;42611;51.132;13.588;2022-08-21T16:04:01;4.5;3.8;
56360;PMS7003;42611;51.132;13.588;2022-08-21T16:09:01;4.3;4.0;
56360;PMS7003;42611;51.132;13.588;2022-08-21T16:14:01;4.1;3.8;
56360;PMS7003;42611;51.132;13.588;2022-08-21T16:19:02;3.9;3.6;
56360;PMS7003;42611;51.132;13.588;2022-08-21T16:24:01;3.8;3.8;
56360;PMS7003;42611;51.132;13.588;2022-08-21T16:29:02;4.0;3.7;
56360;PMS7003;42611;51.132;13.588;2022-08-21T16:34:01;4.2;3.9;
56360;PMS7003;42611;51.132;13.588;2022-08-21T16:39:01;4.4;4.0;
56360;PMS7003;42611;51.132;13.588;2022-08-21T16:44:01;4.0;3.6;
56360;PMS7003;42611;51.132;13.588;2022-08-21T16:49:01;3.9;3.4;
56360;PMS7003;42611;51.132;13.588;2022-08-21T16:54:01;4.0;3.8;
56360;PMS7003;42611;51.132;13.588;2022-08-21T16:59:01;3.8;3.4;
56360;PMS7003;42611;51.132;13.588;2022-08-21T17:04:02;4.6;3.8;
56360;PMS7003;42611;51.132;13.588;2022-08-21T17:09:01;5.7;5.0;
56360;PMS7003;42611;51.132;13.588;2022-08-21T17:14:07;6.4;5.7;
56360;PMS7003;42611;51.132;13.588;2022-08-21T17:19:01;6.2;5.6;
56360;PMS7003;42611;51.132;13.588;2022-08-21T17:24:02;6.4;6.0;
56360;PMS7003;42611;51.132;13.588;2022-08-21T17:29:02;5.9;5.9;
56360;PMS7003;42611;51.132;13.588;2022-08-21T17:34:01;5.5;5.4;
56360;PMS7003;42611;51.132;13.588;2022-08-21T17:39:02;5.1;5.0;
56360;PMS7003;42611;51.132;13.588;2022-08-21T17:44:03;5.5;5.4;
56360;PMS7003;42611;51.132;13.588;2022-08-21T17:49:01;6.2;5.8;
56360;PMS7003;42611;51.132;13.588;2022-08-21T17:54:01;8.2;7.3;
56360;PMS7003;42611;51.132;13.588;2022-08-21T18:04:02;9.9;8.9;
56360;PMS7003;42611;51.132;13.588;2022-08-21T18:09:01;14.3;12.9;
56360;PMS7003;42611;51.132;13.588;2022-08-21T18:14:08;14.9;13.6;
56360;PMS7003;42611;51.132;13.588;2022-08-21T18:19:02;16.6;15.4;
56360;PMS7003;42611;51.132;13.588;2022-08-21T18:24:02;17.8;16.4;
56360;PMS7003;42611;51.132;13.588;2022-08-21T18:29:02;17.7;16.4;
56360;PMS7003;42611;51.132;13.588;2022-08-21T18:34:02;14.2;13.3;
56360;PMS7003;42611;51.132;13.588;2022-08-21T18:39:16;13.8;12.9;
56360;PMS7003;42611;51.132;13.588;2022-08-21T18:44:01;10.2;9.8;
56360;PMS7003;42611;51.132;13.588;2022-08-21T18:49:01;9.2;8.6;
56360;PMS7003;42611;51.132;13.588;2022-08-21T18:54:04;7.8;7.3;
56360;PMS7003;42611;51.132;13.588;2022-08-21T18:59:01;6.8;6.3;
56360;PMS7003;42611;51.132;13.588;2022-08-21T19:04:02;6.1;5.6;
56360;PMS7003;42611;51.132;13.588;2022-08-21T19:09:05;6.3;5.8;
56360;PMS7003;42611;51.132;13.588;2022-08-21T19:14:03;6.6;6.5;
56360;PMS7003;42611;51.132;13.588;2022-08-21T19:19:02;6.0;6.0;
56360;PMS7003;42611;51.132;13.588;2022-08-21T19:24:16;6.2;6.1;
56360;PMS7003;42611;51.132;13.588;2022-08-21T19:29:06;6.3;6.2;
56360;PMS7003;42611;51.132;13.588;2022-08-21T19:34:17;6.1;6.0;
56360;PMS7003;42611;51.132;13.588;2022-08-21T19:39:21;5.8;5.5;
56360;PMS7003;42611;51.132;13.588;2022-08-21T19:45:04;7.0;6.4;
56360;PMS7003;42611;51.132;13.588;2022-08-21T19:50:17;7.8;7.2;
56360;PMS7003;42611;51.132;13.588;2022-08-21T19:55:02;8.4;7.7;
56360;PMS7003;42611;51.132;13.588;2022-08-21T20:00:05;8.8;8.1;
56360;PMS7003;42611;51.132;13.588;2022-08-21T20:05:01;9.0;8.4;
56360;PMS7003;42611;51.132;13.588;2022-08-21T20:10:01;8.2;7.8;
56360;PMS7003;42611;51.132;13.588;2022-08-21T20:15:02;7.7;7.2;
56360;PMS7003;42611;51.132;13.588;2022-08-21T20:20:03;6.9;6.4;
56360;PMS7003;42611;51.132;13.588;2022-08-21T20:25:01;6.8;6.2;
56360;PMS7003;42611;51.132;13.588;2022-08-21T20:30:06;6.8;6.3;
56360;PMS7003;42611;51.132;13.588;2022-08-21T20:35:02;6.9;6.4;
56360;PMS7003;42611;51.132;13.588;2022-08-21T20:40:01;6.7;6.5;
56360;PMS7003;42611;51.132;13.588;2022-08-21T20:45:16;7.4;7.1;
56360;PMS7003;42611;51.132;13.588;2022-08-21T20:50:05;6.8;6.8;
56360;PMS7003;42611;51.132;13.588;2022-08-21T20:55:06;7.2;7.1;
56360;PMS7003;42611;51.132;13.588;2022-08-21T21:00:08;7.4;7.4;
56360;PMS7003;42611;51.132;13.588;2022-08-21T21:05:04;7.7;7.7;
56360;PMS7003;42611;51.132;13.588;2022-08-21T21:10:05;7.8;7.5;
56360;PMS7003;42611;51.132;13.588;2022-08-21T21:15:13;9.1;8.6;
56360;PMS7003;42611;51.132;13.588;2022-08-21T21:20:07;8.6;8.1;
56360;PMS7003;42611;51.132;13.588;2022-08-21T21:25:35;8.8;8.3;
56360;PMS7003;42611;51.132;13.588;2022-08-21T21:30:22;8.8;8.3;
56360;PMS7003;42611;51.132;13.588;2022-08-21T21:35:04;8.1;7.9;
56360;PMS7003;42611;51.132;13.588;2022-08-21T21:40:20;7.8;7.7;
56360;PMS7003;42611;51.132;13.588;2022-08-21T21:45:19;8.2;8.2;
56360;PMS7003;42611;51.132;13.588;2022-08-21T21:50:20;8.6;8.5;
56360;PMS7003;42611;51.132;13.588;2022-08-21T22:00:22;9.4;9.4;
56360;PMS7003;42611;51.132;13.588;2022-08-21T22:10:22;9.6;9.4;
56360;PMS7003;42611;51.132;13.588;2022-08-21T22:15:03;9.2;9.0;
56360;PMS7003;42611;51.132;13.588;2022-08-21T22:20:04;9.6;9.2;
56360;PMS7003;42611;51.132;13.588;2022-08-21T22:25:05;9.8;9.0;
56360;PMS7003;42611;51.132;13.588;2022-08-21T22:30:09;9.6;8.9;
56360;PMS7003;42611;51.132;13.588;2022-08-21T22:35:14;9.1;8.5;
56360;PMS7003;42611;51.132;13.588;2022-08-21T22:40:04;9.4;8.6;
56360;PMS7003;42611;51.132;13.588;2022-08-21T22:45:24;8.9;8.4;
56360;PMS7003;42611;51.132;13.588;2022-08-21T22:50:28;9.0;8.9;
56360;PMS7003;42611;51.132;13.588;2022-08-21T22:55:14;9.5;9.1;
56360;PMS7003;42611;51.132;13.588;2022-08-21T23:00:17;10.4;9.5;
56360;PMS7003;42611;51.132;13.588;2022-08-21T23:05:03;10.1;9.4;
56360;PMS7003;42611;51.132;13.588;2022-08-21T23:10:08;10.7;10.0;
56360;PMS7003;42611;51.132;13.588;2022-08-21T23:15:10;10.6;9.7;
56360;PMS7003;42611;51.132;13.588;2022-08-21T23:20:04;11.1;9.9;
56360;PMS7003;42611;51.132;13.588;2022-08-21T23:25:06;10.8;10.0;
56360;PMS7003;42611;51.132;13.588;2022-08-21T23:30:12;11.4;10.6;
56360;PMS7003;42611;51.132;13.588;2022-08-21T23:35:36;11.8;10.4;
56360;PMS7003;42611;51.132;13.588;2022-08-21T23:40:07;12.1;10.9;
56360;PMS7003;42611;51.132;13.588;2022-08-21T23:45:35;11.4;10.8;
56360;PMS7003;42611;51.132;13.588;2022-08-21T23:50:23;10.6;10.0;
56360;PMS7003;42611;51.132;13.588;2022-08-21T23:55:22;10.1;9.5;
